Aérodrome :
LOGIN :

S'inscrire | Disclaimer

   EN    FR    IT 

 










Légende :    VFR   VFR Marginal   IFR   IFR Intensif   IFR Très Intensif
Visi : 
Plafond : 
>= 8 km
>= 3000ft
5 à 8 km
1000 à 3000 ft
1500m à 5 km
500 à 1000 ft
800 à 1500m
200 à 500 ft
< 800m
< 200 ft
Symboles :   Orages  Brouillard  Fortes neiges  Fortes précipitations  Vent > 20 kt
SIGMETs :   Divers  Orages  Givrage  Turbulence  Onde Orograph.  Cendres Volcan.






- Altitude de l'aérodrome : 59 ft
- Code IATA : TSF


LIPH - Treviso

DERNIER METAR :
  • 220050Z AUTO 21002KT 0350 R07/1400U BCFG FEW003/// 14/14 Q1023

METARs EXPIRÉS :
  • 220020Z AUTO 28001KT 0350 R07/0550VP1500D BCFG FEW012/// 14/14 Q1023
  • 212350Z AUTO 00000KT 0200 R07/0650D FG SCT012 15/14 Q1023
  • 212320Z AUTO 32001KT 1600 R07/1300U BCFG FEW017/// 15/15 Q1023
  • 212250Z AUTO 28002KT 1000 R07/1300N BCFG NCD 15/15 Q1023
  • 212220Z AUTO 29002KT 2600 BR NCD 15/15 Q1023
  • 212150Z AUTO 35001KT 2500 R07/1300N BCFG SCT015/// 15/15 Q1023

TAF TAF LIPH
Valide du 22 à 00h jusqu'au 23 à 00h UTC


212300Z 2200/2224 VRB05KT 2000 BR SCT010
TEMPO 2200/2208 0300 FG BKN002
BECMG 2208/2210 6000



MET'MAP, la Météo Aéronautique d'un coup d'oeil ! - Copyright ORBIFLY Décembre 2007 - Disclaimer

ORBIFLY MET'MAP TEAM :

Programmation & Développement : Alexandra Zaïnal
Conception & Développement : Baudouin d'Aumeries
Co-Programmation & Développement : Marc-Olivier Méhu
Soutien technique & logistique : Manuel Goepfert

Contact : metmap@orbifly.com




SOURCES & CREDITS :

   NOAA